Time;durP1;ratioP1;P1;durP2;ratioP2;P2;SDS_P1;SDS_P2;PMS_P1;PMS_P2;Temp;Humidity;BMP_temperature;BMP_pressure;BME280_temperature;BME280_humidity;BME280_pressure;Samples;Min_cycle;Max_cycle;Signal;HPM_P1;HPM_P2
2023/10/10 00:01:45;;;;;;;;;;;;;;;15.42;40.26;101906.90;107098;1254;24205;-60
2023/10/10 00:04:12;;;;;;;;;;;;;;;15.41;40.39;101903.75;107172;1257;25296;-60
2023/10/10 00:06:39;;;;;;;;;;;;;;;15.41;40.54;101900.45;107115;1257;25309;-60
2023/10/10 00:09:10;;;;;;;;;;;;;;;15.41;40.86;101894.51;107098;1256;25449;-59
2023/10/10 00:11:41;;;;;;;;;;;;;;;15.41;41.14;101894.68;107105;1254;25371;-60
2023/10/10 00:14:17;;;;;;;;;;;;;;;15.40;41.06;101893.64;107099;1260;25309;-60
2023/10/10 00:16:47;;;;;;;;;;;;;;;15.39;41.10;101889.29;106879;1266;25433;-60
2023/10/10 00:19:37;;;;;;;;;;;;;;;15.38;41.27;101888.27;107131;1254;25373;-59
2023/10/10 00:22:05;;;;;;;;;;;;;;;15.38;41.49;101877.42;106887;1260;25369;-60
2023/10/10 00:24:32;;;;;;;;;;;;;;;15.38;41.51;101872.17;107142;1254;25309;-60
2023/10/10 00:27:06;;;;;;;;;;;;;;;15.38;41.61;101867.11;107063;1260;25385;-60
2023/10/10 00:29:33;;;;;;;;;;;;;;;15.38;41.49;101867.11;106982;1258;25343;-60
2023/10/10 00:32:13;;;;;;;;;;;;;;;15.38;41.46;101865.88;107133;1251;25318;-61
2023/10/10 00:34:40;;;;;;;;;;;;;;;15.38;41.62;101865.71;106950;1256;25324;-60
2023/10/10 00:37:13;;;;;;;;;;;;;;;15.38;41.68;101866.41;106949;1255;25309;-60
2023/10/10 00:39:40;;;;;;;;;;;;;;;15.37;42.00;101856.83;106940;1258;25333;-60
2023/10/10 00:42:36;;;;;;;;;;;;;;;15.35;41.70;101856.34;106713;1270;22506;-60
2023/10/10 00:45:06;;;;;;;;;;;;;;;15.34;41.75;101856.37;106773;1259;25334;-60
2023/10/10 00:47:38;;;;;;;;;;;;;;;15.34;41.74;101854.63;106638;1262;25334;-60
2023/10/10 00:50:08;;;;;;;;;;;;;;;15.33;42.03;101851.85;106731;1265;24202;-60
2023/10/10 00:52:36;;;;;;;;;;;;;;;15.34;42.34;101849.55;106420;1256;25380;-61
2023/10/10 00:55:04;;;;;;;;;;;;;;;15.34;42.76;101849.02;106545;1256;24266;-60
2023/10/10 00:57:35;;;;;;;;;;;;;;;15.35;42.97;101844.45;106601;1256;25331;-60
2023/10/10 01:00:07;;;;;;;;;;;;;;;15.35;43.25;101840.60;106538;1260;25471;-60
2023/10/10 01:02:34;;;;;;;;;;;;;;;15.36;43.33;101841.64;106981;1254;25299;-60
2023/10/10 01:05:12;;;;;;;;;;;;;;;15.36;43.28;101838.16;107067;1251;25455;-60
2023/10/10 01:07:39;;;;;;;;;;;;;;;15.36;43.06;101835.17;107151;1257;25309;-60
2023/10/10 01:10:16;;;;;;;;;;;;;;;15.35;42.66;101828.70;107099;1251;25328;-61
2023/10/10 01:12:44;;;;;;;;;;;;;;;15.35;42.26;101827.15;107109;1257;25408;-62
2023/10/10 01:15:15;;;;;;;;;;;;;;;15.35;42.11;101823.84;107227;1250;22502;-59
2023/10/10 01:17:43;;;;;;;;;;;;;;;15.35;42.02;101819.45;106358;1254;1003739;-59
2023/10/10 01:22:52;;;;;;;;;;;;;;;15.34;41.95;101813.88;107162;1254;25299;-61
2023/10/10 01:28:01;;;;;;;;;;;;;;;15.35;41.84;101813.16;107080;1254;25194;-60
2023/10/10 01:30:44;;;;;;;;;;;;;;;15.37;41.75;101820.98;106795;1272;25315;-60
2023/10/10 01:34:00;;;;;;;;;;;;;;;15.37;41.87;101823.23;106942;1257;25309;-59
2023/10/10 01:35:58;;;;;;;;;;;;;;;15.39;42.01;101817.95;106727;1272;25347;-62
2023/10/10 01:38:35;;;;;;;;;;;;;;;15.42;42.18;101816.52;106437;1254;1003078;-60
2023/10/10 01:41:05;;;;;;;;;;;;;;;15.43;42.29;101812.98;106856;1256;24359;-60
2023/10/10 01:43:32;;;;;;;;;;;;;;;15.45;42.40;101811.03;106890;1266;25373;-62
2023/10/10 01:46:42;;;;;;;;;;;;;;;15.46;42.42;101805.04;106443;1254;1003395;-60
2023/10/10 01:48:50;;;;;;;;;;;;;;;15.47;42.36;101799.42;107065;1260;25309;-60
2023/10/10 01:51:17;;;;;;;;;;;;;;;15.49;42.31;101797.27;107233;1254;25308;-60
2023/10/10 01:53:44;;;;;;;;;;;;;;;15.51;41.94;101795.14;107071;1254;25305;-60
2023/10/10 01:56:11;;;;;;;;;;;;;;;15.53;41.47;101789.31;107174;1253;25350;-60
2023/10/10 01:58:39;;;;;;;;;;;;;;;15.55;41.15;101786.11;106531;1257;1003366;-60
2023/10/10 02:01:27;;;;;;;;;;;;;;;15.59;40.82;101784.08;107127;1260;25312;-60
2023/10/10 02:03:54;;;;;;;;;;;;;;;15.63;40.63;101784.33;106121;1264;1003000;-61
2023/10/10 02:06:34;;;;;;;;;;;;;;;15.66;40.34;101781.10;106834;1259;25413;-60
2023/10/10 02:10:12;;;;;;;;;;;;;;;15.70;40.24;101781.86;107101;1256;24350;-63
2023/10/10 02:12:08;;;;;;;;;;;;;;;15.75;40.16;101775.77;107018;1257;23195;-59
2023/10/10 02:14:36;;;;;;;;;;;;;;;15.75;40.19;101778.05;106228;1256;1003437;-61
2023/10/10 02:17:19;;;;;;;;;;;;;;;15.82;39.99;101776.10;107043;1263;25324;-60
2023/10/10 02:19:53;;;;;;;;;;;;;;;15.87;39.99;101774.55;107193;1253;25214;-60
2023/10/10 02:22:36;;;;;;;;;;;;;;;15.90;40.07;101777.62;107166;1251;25421;-61
2023/10/10 02:28:03;;;;;;;;;;;;;;;15.98;39.83;101777.23;106838;1267;25318;-61
2023/10/10 02:30:36;;;;;;;;;;;;;;;16.01;39.85;101779.23;107127;1260;25309;-61
2023/10/10 02:33:14;;;;;;;;;;;;;;;16.03;39.91;101780.40;107141;1263;25346;-61
2023/10/10 02:35:54;;;;;;;;;;;;;;;16.06;39.70;101779.45;107158;1257;25290;-62
2023/10/10 02:38:32;;;;;;;;;;;;;;;16.08;39.75;101776.23;106342;1251;1003476;-62
2023/10/10 02:41:15;;;;;;;;;;;;;;;16.11;39.83;101780.20;106932;1250;25366;-61
2023/10/10 02:46:38;;;;;;;;;;;;;;;16.16;39.97;101783.19;107025;1257;25856;-61
2023/10/10 02:51:55;;;;;;;;;;;;;;;16.20;40.09;101781.50;107203;1257;25333;-60
2023/10/10 02:57:26;;;;;;;;;;;;;;;16.23;39.93;101778.80;107208;1260;25813;-61
2023/10/10 02:59:50;;;;;;;;;;;;;;;16.24;40.03;101776.30;107179;1263;25306;-61
2023/10/10 03:02:23;;;;;;;;;;;;;;;16.25;39.87;101777.15;106835;1256;25318;-61
2023/10/10 03:07:29;;;;;;;;;;;;;;;16.28;39.88;101777.77;107135;1256;25455;-61
2023/10/10 03:12:31;;;;;;;;;;;;;;;16.30;40.02;101776.85;107222;1251;25308;-61
2023/10/10 03:15:33;;;;;;;;;;;;;;;16.32;39.97;101778.03;107090;1254;25299;-61
2023/10/10 03:18:52;;;;;;;;;;;;;;;16.33;40.03;101777.28;107082;1266;25324;-61
2023/10/10 03:20:50;;;;;;;;;;;;;;;16.35;39.93;101777.77;107043;1259;25478;-61
2023/10/10 03:25:47;;;;;;;;;;;;;;;16.36;39.90;101775.99;107129;1266;25309;-61
2023/10/10 03:30:51;;;;;;;;;;;;;;;16.37;39.74;101771.04;107003;1254;25469;-61
2023/10/10 03:33:44;;;;;;;;;;;;;;;16.38;39.79;101772.77;107060;1256;22524;-61
2023/10/10 05:23:29;;;;;;;;;;;;;;;16.42;39.69;101783.33;107056;1269;25367;-61
2023/10/10 05:23:31;;;;;;;;;;;;;;;15.39;43.86;101893.84;106945;1266;25446;-60
2023/10/10 05:25:59;;;;;;;;;;;;;;;15.40;43.86;101901.51;107201;1254;25300;-61
2023/10/10 05:28:30;;;;;;;;;;;;;;;15.40;43.93;101903.78;106937;1266;22517;-61
2023/10/10 05:30:57;;;;;;;;;;;;;;;15.39;43.59;101906.27;107080;1257;25299;-61
2023/10/10 05:33:26;;;;;;;;;;;;;;;15.37;43.40;101909.27;107166;1263;25366;-61
2023/10/10 05:35:57;;;;;;;;;;;;;;;15.37;43.63;101914.89;107158;1251;25309;-61
2023/10/10 05:38:25;;;;;;;;;;;;;;;15.37;43.81;101919.08;107220;1260;22500;-60
2023/10/10 05:40:51;;;;;;;;;;;;;;;15.37;43.84;101916.80;107104;1254;25309;-60
2023/10/10 05:43:26;;;;;;;;;;;;;;;15.35;43.40;101922.77;107149;1256;25309;-60
2023/10/10 05:45:53;;;;;;;;;;;;;;;15.31;43.34;101917.98;107163;1257;25309;-60
2023/10/10 05:48:21;;;;;;;;;;;;;;;15.29;43.57;101922.77;107189;1254;24178;-60
2023/10/10 05:50:48;;;;;;;;;;;;;;;15.26;43.72;101922.99;107194;1254;25455;-61
2023/10/10 05:53:16;;;;;;;;;;;;;;;15.25;43.92;101924.06;106922;1259;25333;-61
2023/10/10 05:55:43;;;;;;;;;;;;;;;15.26;44.13;101927.90;107164;1266;25385;-61
2023/10/10 05:58:12;;;;;;;;;;;;;;;15.25;43.98;101930.36;107274;1255;22516;-61
2023/10/10 06:00:41;;;;;;;;;;;;;;;15.25;44.05;101934.38;107086;1256;25473;-59
2023/10/10 06:03:10;;;;;;;;;;;;;;;15.25;44.37;101935.60;106679;1274;25455;-59
2023/10/10 06:05:39;;;;;;;;;;;;;;;15.26;44.24;101939.08;107137;1254;25389;-61
2023/10/10 06:08:06;;;;;;;;;;;;;;;15.25;43.90;101935.95;107185;1263;22497;-61
2023/10/10 06:10:34;;;;;;;;;;;;;;;15.24;43.54;101939.48;107107;1255;25314;-61
2023/10/10 06:13:03;;;;;;;;;;;;;;;15.22;43.48;101939.16;107064;1254;22521;-61
2023/10/10 06:15:50;;;;;;;;;;;;;;;15.20;43.81;101943.77;106919;1270;25283;-61
2023/10/10 06:18:18;;;;;;;;;;;;;;;15.18;43.81;101947.98;106912;1260;25395;-61
2023/10/10 06:20:47;;;;;;;;;;;;;;;15.17;44.20;101950.45;106847;1269;25312;-61
2023/10/10 06:23:35;;;;;;;;;;;;;;;15.18;44.41;101954.98;106805;1263;25440;-61
2023/10/10 06:26:02;;;;;;;;;;;;;;;15.17;44.07;101955.52;106851;1267;22609;-61
2023/10/10 06:28:35;;;;;;;;;;;;;;;15.17;44.14;101963.21;106769;1266;23867;-62
2023/10/10 06:31:02;;;;;;;;;;;;;;;15.03;44.34;101963.36;106776;1259;24346;-61
2023/10/10 06:33:29;;;;;;;;;;;;;;;15.16;43.79;101966.73;106834;1269;22611;-61
2023/10/10 06:38:59;;;;;;;;;;;;;;;15.22;43.60;101973.61;106856;1260;25380;-60
2023/10/10 06:41:27;;;;;;;;;;;;;;;15.23;43.48;101974.45;106868;1263;25380;-61
2023/10/10 06:43:54;;;;;;;;;;;;;;;15.23;43.50;101974.44;106807;1260;22511;-61
2023/10/10 06:46:23;;;;;;;;;;;;;;;15.22;43.29;101975.34;106892;1260;24079;-61
2023/10/10 06:48:50;;;;;;;;;;;;;;;15.22;43.45;101975.35;107088;1260;25459;-61
2023/10/10 06:51:22;;;;;;;;;;;;;;;15.22;43.42;101970.98;106811;1257;25330;-61
2023/10/10 06:53:54;;;;;;;;;;;;;;;15.22;43.35;101968.18;106050;1257;1003010;-62
2023/10/10 06:56:43;;;;;;;;;;;;;;;15.23;43.20;101972.70;106864;1257;25449;-61
2023/10/10 06:59:20;;;;;;;;;;;;;;;15.25;43.08;101976.34;106596;1269;25337;-61
2023/10/10 07:01:48;;;;;;;;;;;;;;;15.27;42.28;101978.58;106804;1267;25485;-60
2023/10/10 07:04:15;;;;;;;;;;;;;;;15.26;42.45;101981.03;106904;1256;25370;-62
2023/10/10 07:06:45;;;;;;;;;;;;;;;15.29;43.01;101982.71;106752;1273;25376;-62
2023/10/10 07:09:27;;;;;;;;;;;;;;;15.26;42.89;101985.58;106903;1267;25379;-60
2023/10/10 07:12:09;;;;;;;;;;;;;;;15.12;42.82;101986.57;106726;1269;25331;-61
2023/10/10 07:14:47;;;;;;;;;;;;;;;15.12;42.67;101985.17;106783;1260;25312;-62
2023/10/10 07:17:14;;;;;;;;;;;;;;;15.13;42.27;101989.34;106817;1260;25290;-62
2023/10/10 07:22:34;;;;;;;;;;;;;;;15.42;41.97;101989.44;107152;1266;25382;-61
2023/10/10 07:25:07;;;;;;;;;;;;;;;15.47;41.54;101988.63;107180;1254;25308;-62
2023/10/10 07:27:35;;;;;;;;;;;;;;;15.51;41.57;101988.20;107141;1263;25333;-61
2023/10/10 07:30:16;;;;;;;;;;;;;;;15.55;41.62;101988.45;107134;1263;25337;-61
2023/10/10 07:32:44;;;;;;;;;;;;;;;15.60;41.52;101986.94;107170;1260;25308;-62
2023/10/10 07:35:25;;;;;;;;;;;;;;;15.65;41.37;101991.90;107209;1267;25299;-61
2023/10/10 07:37:53;;;;;;;;;;;;;;;15.71;41.37;101986.88;107149;1267;24643;-61
2023/10/10 07:40:21;;;;;;;;;;;;;;;15.77;40.96;101988.98;107121;1251;25373;-60
2023/10/10 07:42:51;;;;;;;;;;;;;;;15.82;40.74;101987.98;107174;1254;25204;-60
2023/10/10 07:45:28;;;;;;;;;;;;;;;15.88;40.73;101989.58;107196;1256;25308;-61
2023/10/10 07:50:34;;;;;;;;;;;;;;;16.04;40.10;101990.77;106923;1254;24179;-61
2023/10/10 07:53:12;;;;;;;;;;;;;;;16.09;39.34;101996.23;106935;1270;22517;-60
2023/10/10 07:56:01;;;;;;;;;;;;;;;16.12;39.09;101998.61;106858;1266;25472;-61
2023/10/10 07:58:42;;;;;;;;;;;;;;;16.14;38.77;101999.98;106624;1269;24208;-62
2023/10/10 08:01:19;;;;;;;;;;;;;;;16.14;38.43;102000.50;106976;1267;22544;-61
2023/10/10 08:03:46;;;;;;;;;;;;;;;16.11;37.92;102007.21;106973;1256;25296;-61
2023/10/10 08:06:18;;;;;;;;;;;;;;;16.08;37.74;102008.17;107024;1254;25445;-60
2023/10/10 08:08:48;;;;;;;;;;;;;;;16.03;37.52;102009.35;106950;1257;25372;-60
2023/10/10 08:11:25;;;;;;;;;;;;;;;15.98;37.73;102012.80;106952;1267;25302;-61
2023/10/10 08:13:53;;;;;;;;;;;;;;;15.94;37.75;102016.39;107113;1257;24215;-61
2023/10/10 08:16:22;;;;;;;;;;;;;;;15.91;37.59;102017.52;106415;1267;1002509;-61
2023/10/10 08:18:52;;;;;;;;;;;;;;;15.90;37.81;102012.13;106726;1269;25312;-61
2023/10/10 08:21:22;;;;;;;;;;;;;;;15.91;37.59;102013.85;107027;1267;25305;-61
2023/10/10 08:23:56;;;;;;;;;;;;;;;15.91;37.49;102014.89;107098;1263;25325;-61
2023/10/10 08:26:29;;;;;;;;;;;;;;;15.94;37.59;102017.61;107144;1255;22638;-61
2023/10/10 08:28:56;;;;;;;;;;;;;;;15.98;37.06;102022.23;107087;1273;25312;-61
2023/10/10 08:31:23;;;;;;;;;;;;;;;16.03;36.87;102023.01;106908;1257;25295;-61
2023/10/10 08:33:50;;;;;;;;;;;;;;;16.09;36.89;102021.96;106924;1260;25382;-61
2023/10/10 08:36:25;;;;;;;;;;;;;;;16.17;36.57;102023.35;107147;1266;25296;-62
2023/10/10 08:38:53;;;;;;;;;;;;;;;16.25;36.04;102031.73;107088;1262;25324;-61
2023/10/10 08:41:25;;;;;;;;;;;;;;;16.34;35.73;102031.70;107133;1266;24231;-61
2023/10/10 08:44:01;;;;;;;;;;;;;;;16.40;34.54;102034.69;107148;1260;22504;-61
2023/10/10 08:46:31;;;;;;;;;;;;;;;16.44;34.01;102031.79;107149;1267;25471;-61
2023/10/10 08:48:59;;;;;;;;;;;;;;;16.48;33.45;102038.88;106875;1267;23164;-62
2023/10/10 08:51:33;;;;;;;;;;;;;;;16.51;32.92;102037.77;106968;1260;22534;-61
2023/10/10 08:54:10;;;;;;;;;;;;;;;16.55;32.92;102039.59;107093;1253;25376;-61
2023/10/10 08:56:40;;;;;;;;;;;;;;;16.62;32.41;102040.64;106961;1262;22498;-62
2023/10/10 08:59:09;;;;;;;;;;;;;;;16.67;31.81;102039.27;106936;1270;25311;-61
2023/10/10 09:01:35;;;;;;;;;;;;;;;16.72;31.56;102039.66;107122;1256;22495;-61
2023/10/10 09:04:05;;;;;;;;;;;;;;;16.78;31.20;102042.66;107083;1253;25181;-61
2023/10/10 09:06:43;;;;;;;;;;;;;;;16.84;30.74;102041.44;107171;1267;25398;-61
2023/10/10 09:11:56;;;;;;;;;;;;;;;16.94;30.40;102041.16;106763;1272;25309;-61
2023/10/10 09:14:53;;;;;;;;;;;;;;;16.97;30.13;102043.01;107093;1257;25367;-61
2023/10/10 09:17:32;;;;;;;;;;;;;;;17.02;29.87;102046.89;106346;1281;25296;-60
2023/10/10 09:20:08;;;;;;;;;;;;;;;17.08;29.77;102046.37;106687;1262;25324;-61
2023/10/10 09:22:42;;;;;;;;;;;;;;;17.14;29.56;102048.49;106700;1275;24361;-61
2023/10/10 09:25:25;;;;;;;;;;;;;;;17.17;29.12;102052.41;106661;1273;25246;-61
2023/10/10 09:27:57;;;;;;;;;;;;;;;17.23;29.12;102049.79;106632;1273;25362;-61
2023/10/10 09:30:31;;;;;;;;;;;;;;;17.28;28.75;102049.63;106744;1266;23880;-62
2023/10/10 09:33:00;;;;;;;;;;;;;;;17.32;28.17;102053.04;106685;1260;22626;-62
2023/10/10 09:35:28;;;;;;;;;;;;;;;17.35;27.33;102051.21;106637;1262;22513;-61
2023/10/10 09:37:57;;;;;;;;;;;;;;;17.38;26.66;102051.27;106212;1266;23847;-61
2023/10/10 09:40:24;;;;;;;;;;;;;;;17.41;26.19;102053.13;106269;1266;25324;-60
2023/10/10 09:45:52;;;;;;;;;;;;;;;17.48;25.18;102050.83;106525;1278;25405;-61
2023/10/10 09:48:28;;;;;;;;;;;;;;;17.52;24.72;102050.37;106597;1266;25391;-61
2023/10/10 09:52:47;;;;;;;;;;;;;;;17.55;24.59;102054.14;106410;1274;25306;-61
2023/10/10 09:53:47;;;;;;;;;;;;;;;17.58;24.16;102057.20;106628;1267;23279;-62
2023/10/10 09:56:14;;;;;;;;;;;;;;;17.61;23.97;102054.30;106670;1273;25381;-61
2023/10/10 09:58:44;;;;;;;;;;;;;;;17.64;24.52;102055.79;106930;1254;25302;-62
2023/10/10 10:01:18;;;;;;;;;;;;;;;17.66;25.49;102058.00;106810;1254;25315;-60
2023/10/10 10:03:55;;;;;;;;;;;;;;;17.67;25.65;102060.94;106945;1257;25345;-61
2023/10/10 10:06:40;;;;;;;;;;;;;;;17.70;25.77;102064.38;106340;1256;1003056;-62
2023/10/10 10:09:31;;;;;;;;;;;;;;;17.69;25.96;102063.19;107210;1253;25296;-61
2023/10/10 10:12:04;;;;;;;;;;;;;;;17.68;26.98;102061.80;106899;1250;23342;-61
2023/10/10 10:14:50;;;;;;;;;;;;;;;17.69;27.34;102062.31;107137;1264;25335;-61
2023/10/10 10:17:19;;;;;;;;;;;;;;;17.69;27.09;102060.36;107018;1256;25332;-61
2023/10/10 10:19:46;;;;;;;;;;;;;;;17.70;26.61;102056.65;107071;1270;25296;-61
2023/10/10 10:22:18;;;;;;;;;;;;;;;17.70;26.75;102056.15;107158;1267;25327;-60
2023/10/10 10:24:45;;;;;;;;;;;;;;;17.68;27.46;102057.77;107046;1257;25401;-60
2023/10/10 10:27:34;;;;;;;;;;;;;;;17.69;27.85;102053.71;106936;1257;25329;-60
2023/10/10 10:30:35;;;;;;;;;;;;;;;17.70;27.69;102061.21;106945;1257;25424;-60
2023/10/10 10:32:58;;;;;;;;;;;;;;;17.69;27.72;102063.54;106924;1267;25458;-61
2023/10/10 10:35:36;;;;;;;;;;;;;;;17.69;27.08;102063.19;106925;1267;25451;-60
2023/10/10 10:38:06;;;;;;;;;;;;;;;17.71;26.92;102054.52;106831;1270;25314;-61
2023/10/10 10:43:15;;;;;;;;;;;;;;;17.80;26.37;102049.85;107100;1256;25333;-60
2023/10/10 10:45:44;;;;;;;;;;;;;;;17.82;26.12;102043.64;107156;1263;25302;-60
2023/10/10 10:48:30;;;;;;;;;;;;;;;17.85;26.55;102050.21;107099;1256;25307;-62
2023/10/10 10:51:03;;;;;;;;;;;;;;;17.90;26.29;102043.39;107056;1263;23138;-60
2023/10/10 10:53:38;;;;;;;;;;;;;;;17.95;26.03;102043.41;106886;1267;25366;-61
2023/10/10 11:01:21;;;;;;;;;;;;;;;18.06;25.74;102040.45;107162;1257;24364;-62
2023/10/10 11:03:54;;;;;;;;;;;;;;;18.08;26.87;102038.27;107171;1255;24196;-61
2023/10/10 11:06:24;;;;;;;;;;;;;;;18.10;26.81;102042.05;107134;1266;25344;-61
2023/10/10 11:08:52;;;;;;;;;;;;;;;18.11;26.46;102035.18;107134;1257;22576;-60
2023/10/10 11:16:46;;;;;;;;;;;;;;;18.03;26.00;102041.04;106395;1273;1003961;-62
2023/10/10 11:21:50;;;;;;;;;;;;;;;18.03;26.01;102042.48;107130;1264;25296;-61
2023/10/10 11:24:23;;;;;;;;;;;;;;;18.04;25.71;102047.70;107219;1257;25333;-62
2023/10/10 11:29:34;;;;;;;;;;;;;;;18.06;26.18;102044.46;107242;1267;25296;-61
2023/10/10 11:32:08;;;;;;;;;;;;;;;18.06;26.20;102043.23;106895;1259;22505;-61
2023/10/10 11:34:44;;;;;;;;;;;;;;;18.07;26.43;102045.30;107161;1266;25366;-61
2023/10/10 11:37:22;;;;;;;;;;;;;;;18.08;26.18;102042.11;106871;1272;26541;-62
2023/10/10 11:40:19;;;;;;;;;;;;;;;18.09;27.02;102041.75;107205;1263;25287;-62
2023/10/10 11:42:47;;;;;;;;;;;;;;;18.10;26.14;102041.87;107119;1262;25324;-61
2023/10/10 11:45:25;;;;;;;;;;;;;;;18.11;25.60;102039.75;107211;1270;25407;-62
2023/10/10 11:47:53;;;;;;;;;;;;;;;18.11;25.86;102039.38;107024;1270;25757;-63
2023/10/10 11:50:29;;;;;;;;;;;;;;;18.15;25.69;102038.39;107152;1257;25321;-60
2023/10/10 11:52:57;;;;;;;;;;;;;;;18.19;25.34;102040.34;106868;1260;25442;-60
2023/10/10 11:55:24;;;;;;;;;;;;;;;18.22;25.58;102042.17;107144;1259;25296;-61
2023/10/10 11:57:55;;;;;;;;;;;;;;;18.26;25.98;102040.13;106932;1267;25293;-61
2023/10/10 12:00:28;;;;;;;;;;;;;;;18.29;26.23;102036.52;107133;1273;25312;-60
2023/10/10 12:02:57;;;;;;;;;;;;;;;18.29;26.08;102034.92;107186;1267;25321;-61
2023/10/10 12:08:05;;;;;;;;;;;;;;;18.32;26.17;102042.39;106379;1266;1003371;-61
2023/10/10 12:10:49;;;;;;;;;;;;;;;18.36;25.63;102046.98;106999;1260;25481;-61
2023/10/10 12:15:57;;;;;;;;;;;;;;;18.41;25.53;102049.10;107077;1254;25307;-61
2023/10/10 12:18:31;;;;;;;;;;;;;;;18.41;25.79;102052.43;107130;1257;24001;-61
2023/10/10 12:21:01;;;;;;;;;;;;;;;18.41;26.19;102056.98;106300;1272;1002885;-61
2023/10/10 12:23:30;;;;;;;;;;;;;;;18.42;26.81;102059.94;107182;1266;22498;-61
2023/10/10 12:25:59;;;;;;;;;;;;;;;18.43;27.03;102056.05;107135;1257;22514;-61
2023/10/10 12:28:26;;;;;;;;;;;;;;;18.44;26.58;102057.98;107101;1257;22621;-61
2023/10/10 12:30:56;;;;;;;;;;;;;;;18.44;26.61;102060.26;107140;1260;25334;-61
2023/10/10 12:33:24;;;;;;;;;;;;;;;18.44;26.65;102059.02;106414;1264;1015603;-60
2023/10/10 12:35:51;;;;;;;;;;;;;;;18.42;27.15;102059.05;107178;1264;25337;-60
2023/10/10 12:38:21;;;;;;;;;;;;;;;18.41;27.04;102066.48;106982;1257;25296;-60
2023/10/10 12:40:49;;;;;;;;;;;;;;;18.39;26.75;102065.15;107226;1257;25286;-60
2023/10/10 12:43:16;;;;;;;;;;;;;;;18.38;27.09;102063.80;107162;1267;25324;-60
2023/10/10 12:45:45;;;;;;;;;;;;;;;18.39;27.91;102062.70;106998;1266;25532;-60
2023/10/10 12:48:20;;;;;;;;;;;;;;;18.39;27.95;102059.89;106673;1274;24251;-59
2023/10/10 12:50:47;;;;;;;;;;;;;;;18.39;28.34;102061.65;106745;1272;25286;-61
2023/10/10 12:53:15;;;;;;;;;;;;;;;18.41;28.89;102063.16;106956;1272;25293;-60
2023/10/10 12:55:49;;;;;;;;;;;;;;;18.42;28.52;102067.17;106216;1256;1003361;-60
2023/10/10 12:58:16;;;;;;;;;;;;;;;18.42;28.00;102063.30;107049;1270;24012;-60
2023/10/10 13:00:52;;;;;;;;;;;;;;;18.41;28.17;102070.52;106841;1271;25305;-62
2023/10/10 13:03:27;;;;;;;;;;;;;;;18.39;27.99;102068.13;106808;1267;1003409;-61
2023/10/10 13:05:58;;;;;;;;;;;;;;;18.36;28.03;102069.29;107137;1253;25314;-61
2023/10/10 13:08:38;;;;;;;;;;;;;;;18.34;28.33;102071.10;107185;1251;22608;-60
2023/10/10 13:11:12;;;;;;;;;;;;;;;18.33;28.36;102070.10;106945;1257;25322;-60
2023/10/10 13:13:59;;;;;;;;;;;;;;;18.31;28.12;102070.34;107139;1266;22626;-61
2023/10/10 13:19:20;;;;;;;;;;;;;;;18.35;28.28;102072.33;106834;1274;23898;-61
2023/10/10 13:21:47;;;;;;;;;;;;;;;18.37;28.10;102075.23;107112;1255;22509;-60
2023/10/10 13:24:15;;;;;;;;;;;;;;;18.38;27.81;102076.60;107258;1251;25382;-60
2023/10/10 13:26:45;;;;;;;;;;;;;;;18.40;28.06;102078.48;107180;1254;25296;-60
2023/10/10 13:29:15;;;;;;;;;;;;;;;18.42;28.18;102078.22;106942;1271;25328;-62
2023/10/10 13:31:44;;;;;;;;;;;;;;;18.45;28.04;102077.98;107139;1263;22510;-61
2023/10/10 13:34:13;;;;;;;;;;;;;;;18.47;28.17;102082.81;107163;1266;25373;-61
2023/10/10 13:36:41;;;;;;;;;;;;;;;18.49;27.88;102078.36;107194;1266;25311;-62
2023/10/10 13:39:09;;;;;;;;;;;;;;;18.51;28.03;102079.89;107066;1262;25343;-62
2023/10/10 13:41:36;;;;;;;;;;;;;;;18.54;28.17;102083.81;107125;1270;25457;-61
2023/10/10 13:44:04;;;;;;;;;;;;;;;18.56;28.37;102077.27;107068;1251;25392;-61
2023/10/10 13:46:37;;;;;;;;;;;;;;;18.57;28.61;102080.91;106878;1275;25359;-61
2023/10/10 13:49:08;;;;;;;;;;;;;;;18.58;28.39;102082.29;107217;1266;25311;-62
2023/10/10 13:51:39;;;;;;;;;;;;;;;18.56;28.30;102087.09;107110;1269;25433;-62
2023/10/10 13:54:07;;;;;;;;;;;;;;;18.54;28.53;102082.23;107215;1264;25491;-61
2023/10/10 13:56:34;;;;;;;;;;;;;;;18.53;28.66;102086.30;107218;1261;24373;-61
2023/10/10 13:59:01;;;;;;;;;;;;;;;18.53;28.74;102088.77;107159;1257;25293;-61
2023/10/10 14:03:58;;;;;;;;;;;;;;;18.53;29.57;102092.11;107064;1267;22524;-62
2023/10/10 14:06:34;;;;;;;;;;;;;;;18.54;29.55;102094.37;106822;1275;24048;-61
2023/10/10 14:09:03;;;;;;;;;;;;;;;18.55;29.66;102098.20;106871;1251;25300;-61
2023/10/10 14:11:32;;;;;;;;;;;;;;;18.57;29.81;102097.24;107024;1261;24490;-61
2023/10/10 14:14:00;;;;;;;;;;;;;;;18.58;29.90;102097.05;107209;1270;24218;-62
2023/10/10 14:16:29;;;;;;;;;;;;;;;18.59;30.14;102103.15;107017;1267;22507;-61
2023/10/10 14:18:56;;;;;;;;;;;;;;;18.58;29.59;102104.77;107009;1270;25466;-61
2023/10/10 14:21:27;;;;;;;;;;;;;;;18.57;29.42;102108.14;106987;1267;25321;-62
2023/10/10 14:24:04;;;;;;;;;;;;;;;18.57;29.79;102111.15;106896;1263;25426;-61
2023/10/10 14:26:34;;;;;;;;;;;;;;;18.55;30.03;102113.48;107200;1254;25286;-62
2023/10/10 14:29:07;;;;;;;;;;;;;;;18.52;30.03;102115.71;107157;1256;22514;-61
2023/10/10 14:31:34;;;;;;;;;;;;;;;18.48;29.82;102118.27;107125;1264;25306;-61
2023/10/10 14:34:05;;;;;;;;;;;;;;;18.45;29.76;102115.92;107130;1254;25343;-60
2023/10/10 14:36:33;;;;;;;;;;;;;;;18.32;30.19;102118.61;107122;1251;22504;-62
2023/10/10 14:38:59;;;;;;;;;;;;;;;18.29;30.41;102124.86;107147;1263;24018;-61
2023/10/10 14:41:32;;;;;;;;;;;;;;;18.35;30.25;102124.14;107218;1257;25394;-61
2023/10/10 14:44:00;;;;;;;;;;;;;;;18.34;30.38;102135.25;107143;1264;25324;-61
2023/10/10 14:46:31;;;;;;;;;;;;;;;18.30;30.51;102140.63;107083;1270;25305;-60
2023/10/10 14:49:05;;;;;;;;;;;;;;;18.27;30.22;102145.84;106936;1267;25667;-61
2023/10/10 14:51:33;;;;;;;;;;;;;;;18.23;30.47;102149.10;106905;1267;25351;-61
2023/10/10 14:54:06;;;;;;;;;;;;;;;18.19;30.94;102152.91;107115;1267;22582;-61
2023/10/10 14:56:35;;;;;;;;;;;;;;;18.16;31.21;102153.04;107040;1265;25373;-61
2023/10/10 14:59:04;;;;;;;;;;;;;;;18.14;31.45;102152.91;107122;1257;25373;-60
2023/10/10 15:01:34;;;;;;;;;;;;;;;18.12;31.71;102157.91;106871;1256;25540;-61
2023/10/10 15:04:04;;;;;;;;;;;;;;;18.09;32.05;102156.77;107022;1251;23165;-60
2023/10/10 15:06:31;;;;;;;;;;;;;;;18.05;32.51;102159.70;107094;1267;25456;-61
2023/10/10 15:08:59;;;;;;;;;;;;;;;18.01;32.55;102164.23;106846;1255;25315;-60
2023/10/10 15:11:29;;;;;;;;;;;;;;;17.95;32.03;102171.95;106943;1267;25446;-61
2023/10/10 15:14:00;;;;;;;;;;;;;;;17.89;32.33;102172.11;107055;1254;25446;-60
2023/10/10 15:16:34;;;;;;;;;;;;;;;17.84;32.57;102179.10;107204;1260;25293;-61
2023/10/10 15:19:03;;;;;;;;;;;;;;;17.80;32.77;102183.26;106152;1270;1002826;-60
2023/10/10 15:21:32;;;;;;;;;;;;;;;17.76;32.97;102186.17;107057;1261;25343;-60
2023/10/10 15:23:59;;;;;;;;;;;;;;;17.72;33.00;102189.27;107104;1254;25436;-60
2023/10/10 15:26:27;;;;;;;;;;;;;;;17.69;33.57;102195.33;107142;1251;23196;-61
2023/10/10 15:28:54;;;;;;;;;;;;;;;17.66;34.02;102202.63;107099;1254;25392;-61
2023/10/10 15:31:24;;;;;;;;;;;;;;;17.62;34.15;102208.16;107257;1254;25345;-60
2023/10/10 15:33:51;;;;;;;;;;;;;;;17.60;34.06;102215.96;107094;1267;22509;-60
2023/10/10 15:36:18;;;;;;;;;;;;;;;17.56;34.12;102213.79;106854;1268;25446;-61
2023/10/10 15:38:46;;;;;;;;;;;;;;;17.52;34.02;102216.18;107154;1267;25296;-61
2023/10/10 15:41:17;;;;;;;;;;;;;;;17.49;34.30;102219.77;107190;1251;25446;-61
2023/10/10 15:43:49;;;;;;;;;;;;;;;17.46;34.36;102224.55;107229;1257;25296;-60
2023/10/10 15:46:17;;;;;;;;;;;;;;;17.43;34.31;102227.08;107189;1254;25343;-61